Time,TemperatureF,DewpointF,PressureIn,WindDirection,WindDirectionDegrees,WindSpeedMPH,WindSpeedGustMPH,Humidity,HourlyPrecipIn,Conditions,Clouds,dailyrainin,SoftwareType,DateUTC
2013-06-28 00:00:00,82.8,43.4,30.17,WNW,293,0.0,0.0,25,0.00,,,0.00,Wunderground v.1.15,2013-06-28 07:00:00,
2013-06-28 00:05:00,82.5,43.1,30.17,WNW,293,0.0,0.0,25,0.00,,,0.00,Wunderground v.1.15,2013-06-28 07:05:00,
2013-06-28 00:15:00,81.7,43.5,30.17,WNW,293,0.0,0.0,26,0.00,,,0.00,Wunderground v.1.15,2013-06-28 07:15:00,
2013-06-28 00:20:00,81.1,41.9,30.17,WNW,293,0.0,0.0,25,0.00,,,0.00,Wunderground v.1.15,2013-06-28 07:20:00,
2013-06-28 00:25:00,81.1,41.9,30.17,WNW,293,0.0,0.0,25,0.00,,,0.00,Wunderground v.1.15,2013-06-28 07:25:00,
2013-06-28 00:35:00,81.2,38.7,30.17,WNW,293,1.0,4.0,22,0.00,,,0.00,Wunderground v.1.15,2013-06-28 07:35:00,
2013-06-28 00:40:00,81.1,37.5,30.17,WNW,293,1.0,1.0,21,0.00,,,0.00,Wunderground v.1.15,2013-06-28 07:40:00,
2013-06-28 00:45:00,81.2,37.5,30.16,WNW,293,1.0,2.0,21,0.00,,,0.00,Wunderground v.1.15,2013-06-28 07:45:00,
2013-06-28 00:55:00,81.4,36.5,30.16,WNW,293,3.0,4.0,20,0.00,,,0.00,Wunderground v.1.15,2013-06-28 07:55:00,
2013-06-28 01:00:00,81.1,36.2,30.16,WNW,293,3.0,3.0,20,0.00,,,0.00,Wunderground v.1.15,2013-06-28 08:00:00,
2013-06-28 01:05:00,81.1,36.2,30.16,WNW,293,3.0,5.0,20,0.00,,,0.00,Wunderground v.1.15,2013-06-28 08:05:00,
2013-06-28 01:15:00,81.1,36.2,30.16,WNW,293,1.0,5.0,20,0.00,,,0.00,Wunderground v.1.15,2013-06-28 08:15:00,
2013-06-28 01:20:00,80.7,35.9,30.16,West,279,1.0,5.0,20,0.00,,,0.00,Wunderground v.1.15,2013-06-28 08:20:00,
2013-06-28 01:30:00,80.8,36.0,30.16,West,279,1.0,1.0,20,0.00,,,0.00,Wunderground v.1.15,2013-06-28 08:30:00,
2013-06-28 01:35:00,80.9,34.8,30.16,West,273,2.0,5.0,19,0.00,,,0.00,Wunderground v.1.15,2013-06-28 08:35:00,
2013-06-28 01:40:00,80.6,34.5,30.16,West,272,4.0,4.0,19,0.00,,,0.00,Wunderground v.1.15,2013-06-28 08:40:00,
2013-06-28 01:45:00,80.9,36.1,30.16,West,267,4.0,6.0,20,0.00,,,0.00,Wunderground v.1.15,2013-06-28 08:45:00,
2013-06-28 01:55:00,81.3,35.1,30.16,West,268,1.0,6.0,19,0.00,,,0.00,Wunderground v.1.15,2013-06-28 08:55:00,
2013-06-28 02:00:00,81.3,35.1,30.16,West,269,1.0,1.0,19,0.00,,,0.00,Wunderground v.1.15,2013-06-28 09:00:00,
2013-06-28 02:05:00,81.0,36.1,30.15,West,269,1.0,2.0,20,0.00,,,0.00,Wunderground v.1.15,2013-06-28 09:05:00,
2013-06-28 02:15:00,80.6,35.8,30.15,West,275,2.0,8.0,20,0.00,,,0.00,Wunderground v.1.15,2013-06-28 09:15:00,
2013-06-28 02:20:00,80.1,34.1,30.15,West,275,1.0,8.0,19,0.00,,,0.00,Wunderground v.1.15,2013-06-28 09:20:00,
2013-06-28 02:30:00,79.8,33.9,30.15,West,275,1.0,1.0,19,0.00,,,0.00,Wunderground v.1.15,2013-06-28 09:30:00,
2013-06-28 02:35:00,79.7,35.1,30.15,West,275,1.0,6.0,20,0.00,,,0.00,Wunderground v.1.15,2013-06-28 09:35:00,
2013-06-28 02:45:00,79.4,34.8,30.15,West,275,1.0,6.0,20,0.00,,,0.00,Wunderground v.1.15,2013-06-28 09:45:00,
2013-06-28 02:50:00,79.2,34.6,30.15,West,275,1.0,1.0,20,0.00,,,0.00,Wunderground v.1.15,2013-06-28 09:50:00,
2013-06-28 03:00:00,79.1,34.6,30.14,West,275,0.0,6.0,20,0.00,,,0.00,Wunderground v.1.15,2013-06-28 10:00:00,
2013-06-28 03:05:00,79.1,34.6,30.14,West,275,0.0,6.0,20,0.00,,,0.00,Wunderground v.1.15,2013-06-28 10:05:00,
2013-06-28 03:15:00,78.5,34.1,30.15,West,275,0.0,5.0,20,0.00,,,0.00,Wunderground v.1.15,2013-06-28 10:15:00,
2013-06-28 03:20:00,78.1,33.7,30.14,West,275,0.0,5.0,20,0.00,,,0.00,Wunderground v.1.15,2013-06-28 10:20:00,
2013-06-28 03:30:00,77.7,34.6,30.14,West,275,0.0,5.0,21,0.00,,,0.00,Wunderground v.1.15,2013-06-28 10:30:00,
2013-06-28 03:35:00,77.5,35.6,30.14,West,275,0.0,5.0,22,0.00,,,0.00,Wunderground v.1.15,2013-06-28 10:35:00,
2013-06-28 03:40:00,77.5,35.6,30.14,West,275,1.0,1.0,22,0.00,,,0.00,Wunderground v.1.15,2013-06-28 10:40:00,
2013-06-28 03:45:00,77.4,35.6,30.14,West,275,1.0,4.0,22,0.00,,,0.00,Wunderground v.1.15,2013-06-28 10:45:00,
2013-06-28 03:55:00,77.8,35.9,30.14,West,275,1.0,4.0,22,0.00,,,0.00,Wunderground v.1.15,2013-06-28 10:55:00,
2013-06-28 04:00:00,77.9,36.0,30.14,West,275,2.0,2.0,22,0.00,,,0.00,Wunderground v.1.15,2013-06-28 11:00:00,
2013-06-28 04:05:00,77.9,36.0,30.15,West,275,2.0,4.0,22,0.00,,,0.00,Wunderground v.1.15,2013-06-28 11:05:00,
2013-06-28 04:15:00,77.7,38.0,30.14,West,275,3.0,5.0,24,0.00,,,0.00,Wunderground v.1.15,2013-06-28 11:15:00,
2013-06-28 04:20:00,78.2,38.4,30.14,West,275,2.0,5.0,24,0.00,,,0.00,Wunderground v.1.15,2013-06-28 11:20:00,
2013-06-28 04:30:00,78.7,38.9,30.14,West,275,1.0,5.0,24,0.00,,,0.00,Wunderground v.1.15,2013-06-28 11:30:00,
2013-06-28 04:35:00,78.7,38.9,30.14,West,275,1.0,6.0,24,0.00,,,0.00,Wunderground v.1.15,2013-06-28 11:35:00,
2013-06-28 04:40:00,78.7,39.9,30.14,West,275,1.0,1.0,25,0.00,,,0.00,Wunderground v.1.15,2013-06-28 11:40:00,
2013-06-28 04:45:00,78.5,39.7,30.14,West,275,2.0,3.0,25,0.00,,,0.00,Wunderground v.1.15,2013-06-28 11:45:00,
2013-06-28 04:50:00,78.6,39.8,30.14,West,275,2.0,6.0,25,0.00,,,0.00,Wunderground v.1.15,2013-06-28 11:50:00,
2013-06-28 05:00:00,78.8,40.0,30.15,West,274,2.0,6.0,25,0.00,,,0.00,Wunderground v.1.15,2013-06-28 12:00:00,
2013-06-28 05:05:00,78.9,40.1,30.15,West,274,1.0,6.0,25,0.00,,,0.00,Wunderground v.1.15,2013-06-28 12:05:00,
2013-06-28 05:15:00,78.8,40.0,30.15,West,274,1.0,6.0,25,0.00,,,0.00,Wunderground v.1.15,2013-06-28 12:15:00,
2013-06-28 05:20:00,78.2,40.5,30.15,West,274,0.0,6.0,26,0.00,,,0.00,Wunderground v.1.15,2013-06-28 12:20:00,
2013-06-28 05:25:00,78.1,40.4,30.15,West,274,0.0,6.0,26,0.00,,,0.00,Wunderground v.1.15,2013-06-28 12:25:00,
2013-06-28 05:30:00,78.3,40.6,30.15,West,274,0.0,6.0,26,0.00,,,0.00,Wunderground v.1.15,2013-06-28 12:30:00,
2013-06-28 05:40:00,78.4,40.7,30.15,West,274,1.0,1.0,26,0.00,,,0.00,Wunderground v.1.15,2013-06-28 12:40:00,
2013-06-28 05:45:00,78.6,40.8,30.15,West,274,2.0,2.0,26,0.00,,,0.00,Wunderground v.1.15,2013-06-28 12:45:00,
2013-06-28 05:50:00,78.9,41.1,30.15,West,274,2.0,4.0,26,0.00,,,0.00,Wunderground v.1.15,2013-06-28 12:50:00,
2013-06-28 06:00:00,79.2,41.3,30.15,West,274,1.0,1.0,26,0.00,,,0.00,Wunderground v.1.15,2013-06-28 13:00:00,
2013-06-28 06:05:00,79.2,41.3,30.15,West,274,0.0,5.0,26,0.00,,,0.00,Wunderground v.1.15,2013-06-28 13:05:00,
2013-06-28 06:15:00,80.1,42.1,30.15,West,273,1.0,5.0,26,0.00,,,0.00,Wunderground v.1.15,2013-06-28 13:15:00,
2013-06-28 06:20:00,80.7,42.6,30.15,West,272,1.0,1.0,26,0.00,,,0.00,Wunderground v.1.15,2013-06-28 13:20:00,
2013-06-28 06:30:00,82.4,42.0,30.16,West,271,3.0,5.0,24,0.00,,,0.00,Wunderground v.1.15,2013-06-28 13:30:00,
2013-06-28 06:35:00,82.7,42.2,30.16,West,268,4.0,6.0,24,0.00,,,0.00,Wunderground v.1.15,2013-06-28 13:35:00,
2013-06-28 06:45:00,83.2,42.6,30.16,West,269,1.0,6.0,24,0.00,,,0.00,Wunderground v.1.15,2013-06-28 13:45:00,
2013-06-28 06:50:00,83.8,42.0,30.16,West,270,1.0,1.0,23,0.00,,,0.00,Wunderground v.1.15,2013-06-28 13:50:00,
2013-06-28 07:00:00,84.9,43.0,30.16,West,268,1.0,6.0,23,0.00,,,0.00,Wunderground v.1.15,2013-06-28 14:00:00,
2013-06-28 07:05:00,85.4,42.2,30.16,West,268,1.0,6.0,22,0.00,,,0.00,Wunderground v.1.15,2013-06-28 14:05:00,
2013-06-28 07:10:00,86.0,42.7,30.16,West,268,0.0,5.0,22,0.00,,,0.00,Wunderground v.1.15,2013-06-28 14:10:00,
2013-06-28 07:20:00,87.4,41.4,30.16,West,268,0.0,5.0,20,0.00,,,0.00,Wunderground v.1.15,2013-06-28 14:20:00,
2013-06-28 07:25:00,87.8,41.7,30.16,West,268,0.0,5.0,20,0.00,,,0.00,Wunderground v.1.15,2013-06-28 14:25:00,
2013-06-28 07:30:00,88.4,40.9,30.16,West,268,0.0,5.0,19,0.00,,,0.00,Wunderground v.1.15,2013-06-28 14:30:00,
2013-06-28 07:35:00,88.8,41.2,30.16,West,268,0.0,5.0,19,0.00,,,0.00,Wunderground v.1.15,2013-06-28 14:35:00,
2013-06-28 07:45:00,89.8,40.6,30.16,West,267,0.0,4.0,18,0.00,,,0.00,Wunderground v.1.15,2013-06-28 14:45:00,
2013-06-28 07:50:00,90.0,40.8,30.16,West,267,0.0,4.0,18,0.00,,,0.00,Wunderground v.1.15,2013-06-28 14:50:00,
2013-06-28 08:00:00,90.5,41.2,30.16,West,260,0.0,4.0,18,0.00,,,0.00,Wunderground v.1.15,2013-06-28 15:00:00,
2013-06-28 08:05:00,90.5,41.2,30.16,West,260,0.0,4.0,18,0.00,,,0.00,Wunderground v.1.15,2013-06-28 15:05:00,
2013-06-28 08:15:00,91.0,40.1,30.16,West,260,0.0,4.0,17,0.00,,,0.00,Wunderground v.1.15,2013-06-28 15:15:00,
2013-06-28 08:20:00,91.0,40.1,30.17,West,260,1.0,1.0,17,0.00,,,0.00,Wunderground v.1.15,2013-06-28 15:20:00,
2013-06-28 08:25:00,91.2,40.3,30.17,West,260,1.0,4.0,17,0.00,,,0.00,Wunderground v.1.15,2013-06-28 15:25:00,
2013-06-28 08:30:00,91.2,40.3,30.17,WSW,248,1.0,1.0,17,0.00,,,0.00,Wunderground v.1.15,2013-06-28 15:30:00,
2013-06-28 08:35:00,91.3,40.4,30.17,WSW,248,1.0,4.0,17,0.00,,,0.00,Wunderground v.1.15,2013-06-28 15:35:00,
2013-06-28 08:45:00,91.2,40.3,30.16,South,187,2.0,6.0,17,0.00,,,0.00,Wunderground v.1.15,2013-06-28 15:45:00,
2013-06-28 08:50:00,91.0,40.1,30.17,South,182,3.0,3.0,17,0.00,,,0.00,Wunderground v.1.15,2013-06-28 15:50:00,
2013-06-28 09:00:00,91.4,40.5,30.17,South,179,2.0,2.0,17,0.00,,,0.00,Wunderground v.1.15,2013-06-28 16:00:00,
2013-06-28 09:05:00,91.8,40.8,30.17,South,179,2.0,7.0,17,0.00,,,0.00,Wunderground v.1.15,2013-06-28 16:05:00,
2013-06-28 09:10:00,92.1,39.5,30.17,South,174,2.0,7.0,16,0.00,,,0.00,Wunderground v.1.15,2013-06-28 16:10:00,
2013-06-28 09:20:00,92.0,40.9,30.17,SSE,159,4.0,4.0,17,0.00,,,0.00,Wunderground v.1.15,2013-06-28 16:20:00,
2013-06-28 09:25:00,92.2,39.5,30.16,SSE,159,3.0,7.0,16,0.00,,,0.00,Wunderground v.1.15,2013-06-28 16:25:00,
2013-06-28 09:35:00,92.2,39.5,30.16,SSE,158,4.0,7.0,16,0.00,,,0.00,Wunderground v.1.15,2013-06-28 16:35:00,
2013-06-28 09:45:00,92.6,39.9,30.16,SSE,149,4.0,8.0,16,0.00,,,0.00,Wunderground v.1.15,2013-06-28 16:45:00,
2013-06-28 09:50:00,93.2,41.9,30.16,SSE,149,3.0,8.0,17,0.00,,,0.00,Wunderground v.1.15,2013-06-28 16:50:00,
2013-06-28 10:00:00,92.7,41.5,30.16,SSE,149,3.0,3.0,17,0.00,,,0.00,Wunderground v.1.15,2013-06-28 17:00:00,
2013-06-28 10:05:00,92.9,41.7,30.16,SSE,149,3.0,9.0,17,0.00,,,0.00,Wunderground v.1.15,2013-06-28 17:05:00,
2013-06-28 10:15:00,94.3,41.2,30.16,SSE,155,2.0,3.0,16,0.00,,,0.00,Wunderground v.1.15,2013-06-28 17:15:00,
2013-06-28 10:20:00,94.4,42.9,30.16,SSE,167,2.0,9.0,17,0.00,,,0.00,Wunderground v.1.15,2013-06-28 17:20:00,
2013-06-28 10:30:00,94.2,41.1,30.16,SSE,157,3.0,9.0,16,0.00,,,0.00,Wunderground v.1.15,2013-06-28 17:30:00,
2013-06-28 10:35:00,94.7,41.5,30.16,SE,135,2.0,10.0,16,0.00,,,0.00,Wunderground v.1.15,2013-06-28 17:35:00,
2013-06-28 10:45:00,94.6,41.5,30.15,SSE,154,3.0,10.0,16,0.00,,,0.00,Wunderground v.1.15,2013-06-28 17:45:00,
2013-06-28 10:50:00,95.1,41.9,30.16,SSE,154,2.0,10.0,16,0.00,,,0.00,Wunderground v.1.15,2013-06-28 17:50:00,
2013-06-28 11:00:00,95.7,42.3,30.15,SSE,166,4.0,4.0,16,0.00,,,0.00,Wunderground v.1.15,2013-06-28 18:00:00,
2013-06-28 11:05:00,95.5,42.2,30.15,SSE,167,3.0,9.0,16,0.00,,,0.00,Wunderground v.1.15,2013-06-28 18:05:00,
2013-06-28 11:15:00,95.3,42.0,30.15,SE,140,3.0,9.0,16,0.00,,,0.00,Wunderground v.1.15,2013-06-28 18:15:00,
2013-06-28 11:20:00,95.1,41.9,30.15,SE,137,3.0,3.0,16,0.00,,,0.00,Wunderground v.1.15,2013-06-28 18:20:00,
2013-06-28 11:30:00,96.5,41.3,30.15,SE,129,4.0,9.0,15,0.00,,,0.00,Wunderground v.1.15,2013-06-28 18:30:00,
2013-06-28 11:35:00,96.3,41.1,30.14,East,80,5.0,13.0,15,0.00,,,0.00,Wunderground v.1.15,2013-06-28 18:35:00,
2013-06-28 11:45:00,97.3,41.9,30.14,SE,141,4.0,13.0,15,0.00,,,0.00,Wunderground v.1.15,2013-06-28 18:45:00,
2013-06-28 11:50:00,97.6,42.2,30.14,East,98,3.0,3.0,15,0.00,,,0.00,Wunderground v.1.15,2013-06-28 18:50:00,
2013-06-28 11:55:00,97.9,42.4,30.14,ENE,76,2.0,13.0,15,0.00,,,0.00,Wunderground v.1.15,2013-06-28 18:55:00,
2013-06-28 12:00:00,98.1,40.8,30.13,ESE,106,1.0,13.0,14,0.00,,,0.00,Wunderground v.1.15,2013-06-28 19:00:00,
2013-06-28 12:05:00,98.0,40.7,30.13,ESE,115,2.0,13.0,14,0.00,,,0.00,Wunderground v.1.15,2013-06-28 19:05:00,
2013-06-28 12:15:00,98.1,40.8,30.13,South,187,2.0,11.0,14,0.00,,,0.00,Wunderground v.1.15,2013-06-28 19:15:00,
2013-06-28 12:20:00,98.2,40.8,30.13,South,173,2.0,2.0,14,0.00,,,0.00,Wunderground v.1.15,2013-06-28 19:20:00,
2013-06-28 12:30:00,98.9,41.4,30.12,SW,217,3.0,3.0,14,0.00,,,0.00,Wunderground v.1.15,2013-06-28 19:30:00,
2013-06-28 12:35:00,99.6,40.0,30.12,NW,325,3.0,4.0,13,0.00,,,0.00,Wunderground v.1.15,2013-06-28 19:35:00,
2013-06-28 12:45:00,100.1,38.4,30.12,NW,322,4.0,13.0,12,0.00,,,0.00,Wunderground v.1.15,2013-06-28 19:45:00,
2013-06-28 12:50:00,100.1,38.4,30.11,NNW,344,4.0,13.0,12,0.00,,,0.00,Wunderground v.1.15,2013-06-28 19:50:00,
2013-06-28 13:00:00,100.2,36.2,30.11,WNW,299,5.0,5.0,11,0.00,,,0.00,Wunderground v.1.15,2013-06-28 20:00:00,
2013-06-28 13:10:00,100.6,34.1,30.11,NNW,329,6.0,15.0,10,0.00,,,0.00,Wunderground v.1.15,2013-06-28 20:10:00,
2013-06-28 13:20:00,100.1,33.7,30.10,North,360,6.0,6.0,10,0.00,,,0.00,Wunderground v.1.15,2013-06-28 20:20:00,
2013-06-28 13:30:00,100.0,36.1,30.10,NNE,13,4.0,4.0,11,0.00,,,0.00,Wunderground v.1.15,2013-06-28 20:30:00,
2013-06-28 13:35:00,100.6,34.1,30.10,WNW,297,4.0,13.0,10,0.00,,,0.00,Wunderground v.1.15,2013-06-28 20:35:00,
2013-06-28 13:45:00,100.7,36.6,30.10,NW,315,7.0,14.0,11,0.00,,,0.00,Wunderground v.1.15,2013-06-28 20:45:00,
2013-06-28 13:50:00,100.6,36.5,30.09,WNW,298,8.0,13.0,11,0.00,,,0.00,Wunderground v.1.15,2013-06-28 20:50:00,
2013-06-28 13:55:00,100.3,36.3,30.09,WNW,286,7.0,13.0,11,0.00,,,0.00,Wunderground v.1.15,2013-06-28 20:55:00,
2013-06-28 14:00:00,101.2,37.0,30.09,NW,325,4.0,4.0,11,0.00,,,0.00,Wunderground v.1.15,2013-06-28 21:00:00,
2013-06-28 14:10:00,100.9,36.8,30.09,NNW,338,5.0,16.0,11,0.00,,,0.00,Wunderground v.1.15,2013-06-28 21:10:00,
2013-06-28 14:15:00,100.4,36.4,30.09,North,354,6.0,16.0,11,0.00,,,0.00,Wunderground v.1.15,2013-06-28 21:15:00,
2013-06-28 14:20:00,100.7,36.6,30.08,WNW,294,5.0,16.0,11,0.00,,,0.00,Wunderground v.1.15,2013-06-28 21:20:00,
2013-06-28 14:30:00,100.5,36.5,30.08,NW,305,7.0,7.0,11,0.00,,,0.00,Wunderground v.1.15,2013-06-28 21:30:00,
2013-06-28 14:35:00,101.3,37.1,30.08,NNW,346,5.0,17.0,11,0.00,,,0.00,Wunderground v.1.15,2013-06-28 21:35:00,
2013-06-28 14:45:00,101.6,34.9,30.08,NNW,333,6.0,7.0,10,0.00,,,0.00,Wunderground v.1.15,2013-06-28 21:45:00,
2013-06-28 14:50:00,101.4,34.7,30.08,West,265,6.0,6.0,10,0.00,,,0.00,Wunderground v.1.15,2013-06-28 21:50:00,
2013-06-28 14:55:00,101.2,34.6,30.08,NW,314,6.0,17.0,10,0.00,,,0.00,Wunderground v.1.15,2013-06-28 21:55:00,
2013-06-28 15:05:00,101.2,31.9,30.07,West,265,8.0,9.0,9,0.00,,,0.00,Wunderground v.1.15,2013-06-28 22:05:00,
2013-06-28 15:15:00,101.2,34.6,30.07,WNW,303,7.0,17.0,10,0.00,,,0.00,Wunderground v.1.15,2013-06-28 22:15:00,
2013-06-28 15:20:00,100.8,34.3,30.07,NW,313,7.0,7.0,10,0.00,,,0.00,Wunderground v.1.15,2013-06-28 22:20:00,
2013-06-28 15:30:00,100.6,36.5,30.07,West,270,6.0,17.0,11,0.00,,,0.00,Wunderground v.1.15,2013-06-28 22:30:00,
2013-06-28 15:35:00,100.4,36.4,30.07,WNW,301,5.0,17.0,11,0.00,,,0.00,Wunderground v.1.15,2013-06-28 22:35:00,
2013-06-28 15:45:00,101.0,39.1,30.06,NNW,346,6.0,16.0,12,0.00,,,0.00,Wunderground v.1.15,2013-06-28 22:45:00,
2013-06-28 15:55:00,100.3,38.5,30.06,WNW,297,8.0,16.0,12,0.00,,,0.00,Wunderground v.1.15,2013-06-28 22:55:00,
2013-06-28 16:00:00,100.6,38.7,30.06,NW,306,7.0,7.0,12,0.00,,,0.00,Wunderground v.1.15,2013-06-28 23:00:00,
2013-06-28 16:05:00,100.7,38.8,30.05,NNW,328,8.0,10.0,12,0.00,,,0.00,Wunderground v.1.15,2013-06-28 23:05:00,
2013-06-28 16:15:00,100.0,38.3,30.05,WNW,300,9.0,16.0,12,0.00,,,0.00,Wunderground v.1.15,2013-06-28 23:15:00,
2013-06-28 16:20:00,100.0,38.3,30.05,WNW,290,8.0,16.0,12,0.00,,,0.00,Wunderground v.1.15,2013-06-28 23:20:00,
2013-06-28 16:30:00,99.8,38.1,30.04,NW,313,10.0,10.0,12,0.00,,,0.00,Wunderground v.1.15,2013-06-28 23:30:00,
2013-06-28 16:35:00,99.8,35.9,30.04,North,355,10.0,19.0,11,0.00,,,0.00,Wunderground v.1.15,2013-06-28 23:35:00,
2013-06-28 16:40:00,100.0,36.1,30.04,NNW,331,9.0,9.0,11,0.00,,,0.00,Wunderground v.1.15,2013-06-28 23:40:00,
2013-06-28 16:50:00,99.8,38.1,30.04,NNW,331,10.0,10.0,12,0.00,,,0.00,Wunderground v.1.15,2013-06-28 23:50:00,
2013-06-28 17:00:00,99.9,38.2,30.03,North,3,8.0,19.0,12,0.00,,,0.00,Wunderground v.1.15,2013-06-29 00:00:00,
2013-06-28 17:05:00,99.8,35.9,30.03,NW,306,9.0,19.0,11,0.00,,,0.00,Wunderground v.1.15,2013-06-29 00:05:00,
2013-06-28 17:15:00,99.7,35.8,30.03,NW,306,9.0,18.0,11,0.00,,,0.00,Wunderground v.1.15,2013-06-29 00:15:00,
2013-06-28 17:20:00,100.0,36.1,30.03,NNW,331,7.0,18.0,11,0.00,,,0.00,Wunderground v.1.15,2013-06-29 00:20:00,
2013-06-28 17:30:00,99.4,37.8,30.03,NW,314,10.0,18.0,12,0.00,,,0.00,Wunderground v.1.15,2013-06-29 00:30:00,
2013-06-28 17:35:00,99.2,37.7,30.03,NW,305,9.0,18.0,12,0.00,,,0.00,Wunderground v.1.15,2013-06-29 00:35:00,
2013-06-28 17:40:00,99.2,37.7,30.03,North,356,9.0,17.0,12,0.00,,,0.00,Wunderground v.1.15,2013-06-29 00:40:00,
2013-06-28 17:45:00,98.9,37.4,30.03,WNW,289,9.0,17.0,12,0.00,,,0.00,Wunderground v.1.15,2013-06-29 00:45:00,
2013-06-28 17:55:00,98.8,39.4,30.02,NNW,339,9.0,17.0,13,0.00,,,0.00,Wunderground v.1.15,2013-06-29 00:55:00,
2013-06-28 18:00:00,98.4,41.0,30.02,NW,323,8.0,17.0,14,0.00,,,0.00,Wunderground v.1.15,2013-06-29 01:00:00,
2013-06-28 18:05:00,98.3,40.9,30.03,WNW,294,8.0,19.0,14,0.00,,,0.00,Wunderground v.1.15,2013-06-29 01:05:00,
2013-06-28 18:15:00,98.1,40.8,30.02,NNW,345,7.0,8.0,14,0.00,,,0.00,Wunderground v.1.15,2013-06-29 01:15:00,
2013-06-28 18:20:00,98.0,40.7,30.03,NNW,333,7.0,19.0,14,0.00,,,0.00,Wunderground v.1.15,2013-06-29 01:20:00,
2013-06-28 18:30:00,97.1,41.8,30.03,NNW,341,9.0,19.0,15,0.00,,,0.00,Wunderground v.1.15,2013-06-29 01:30:00,
2013-06-28 18:35:00,96.9,41.6,30.02,NNW,334,9.0,19.0,15,0.00,,,0.00,Wunderground v.1.15,2013-06-29 01:35:00,
2013-06-28 18:40:00,96.6,41.4,30.02,North,356,8.0,8.0,15,0.00,,,0.00,Wunderground v.1.15,2013-06-29 01:40:00,
2013-06-28 18:50:00,96.1,41.0,30.03,NW,309,7.0,17.0,15,0.00,,,0.00,Wunderground v.1.15,2013-06-29 01:50:00,
2013-06-28 19:00:00,95.7,40.7,30.03,NW,319,6.0,17.0,15,0.00,,,0.00,Wunderground v.1.15,2013-06-29 02:00:00,
2013-06-28 19:05:00,95.5,40.5,30.03,NW,308,6.0,17.0,15,0.00,,,0.00,Wunderground v.1.15,2013-06-29 02:05:00,
2013-06-28 19:15:00,95.1,40.2,30.03,WNW,295,6.0,14.0,15,0.00,,,0.00,Wunderground v.1.15,2013-06-29 02:15:00,
2013-06-28 19:20:00,94.7,39.9,30.03,NW,316,7.0,14.0,15,0.00,,,0.00,Wunderground v.1.15,2013-06-29 02:20:00,
2013-06-28 19:30:00,94.4,41.3,30.02,WNW,298,7.0,7.0,16,0.00,,,0.00,Wunderground v.1.15,2013-06-29 02:30:00,
2013-06-28 19:35:00,94.1,41.1,30.02,NW,323,7.0,14.0,16,0.00,,,0.00,Wunderground v.1.15,2013-06-29 02:35:00,
2013-06-28 19:45:00,93.4,40.5,30.02,WNW,288,8.0,9.0,16,0.00,,,0.00,Wunderground v.1.15,2013-06-29 02:45:00,
2013-06-28 19:50:00,93.3,40.4,30.02,NW,304,7.0,7.0,16,0.00,,,0.00,Wunderground v.1.15,2013-06-29 02:50:00,
2013-06-28 19:55:00,93.1,41.8,30.03,NW,322,7.0,12.0,17,0.00,,,0.00,Wunderground v.1.15,2013-06-29 02:55:00,
2013-06-28 20:00:00,92.8,41.6,30.02,NNW,329,7.0,14.0,17,0.00,,,0.00,Wunderground v.1.15,2013-06-29 03:00:00,
2013-06-28 20:10:00,92.6,39.9,30.03,North,349,8.0,8.0,16,0.00,,,0.00,Wunderground v.1.15,2013-06-29 03:10:00,
2013-06-28 20:15:00,92.4,41.3,30.03,North,358,5.0,14.0,17,0.00,,,0.00,Wunderground v.1.15,2013-06-29 03:15:00,
2013-06-28 20:20:00,92.1,41.0,30.03,NNW,347,2.0,2.0,17,0.00,,,0.00,Wunderground v.1.15,2013-06-29 03:20:00,
2013-06-28 20:30:00,91.2,41.8,30.03,NNE,21,2.0,14.0,18,0.00,,,0.00,Wunderground v.1.15,2013-06-29 03:30:00,
2013-06-28 20:35:00,91.1,40.2,30.03,North,351,4.0,14.0,17,0.00,,,0.00,Wunderground v.1.15,2013-06-29 03:35:00,
2013-06-28 20:45:00,90.8,40.0,30.03,NNW,336,4.0,14.0,17,0.00,,,0.00,Wunderground v.1.15,2013-06-29 03:45:00,
2013-06-28 20:50:00,90.8,41.4,30.03,NW,325,3.0,14.0,18,0.00,,,0.00,Wunderground v.1.15,2013-06-29 03:50:00,
2013-06-28 20:55:00,91.1,40.2,30.03,NNW,336,4.0,14.0,17,0.00,,,0.00,Wunderground v.1.15,2013-06-29 03:55:00,
2013-06-28 21:00:00,91.2,40.3,30.04,NNW,343,3.0,3.0,17,0.00,,,0.00,Wunderground v.1.15,2013-06-29 04:00:00,
2013-06-28 21:05:00,90.8,41.4,30.04,NNW,343,2.0,9.0,18,0.00,,,0.00,Wunderground v.1.15,2013-06-29 04:05:00,
2013-06-28 21:10:00,90.3,41.0,30.04,NNW,343,0.0,9.0,18,0.00,,,0.00,Wunderground v.1.15,2013-06-29 04:10:00,
2013-06-28 21:20:00,89.5,40.4,30.04,NNW,343,0.0,9.0,18,0.00,,,0.00,Wunderground v.1.15,2013-06-29 04:20:00,
2013-06-28 21:25:00,89.1,41.5,30.04,NNW,343,0.0,9.0,19,0.00,,,0.00,Wunderground v.1.15,2013-06-29 04:25:00,
2013-06-28 21:30:00,88.8,41.2,30.04,NNW,343,0.0,9.0,19,0.00,,,0.00,Wunderground v.1.15,2013-06-29 04:30:00,
2013-06-28 21:35:00,88.4,40.9,30.04,NNW,343,0.0,9.0,19,0.00,,,0.00,Wunderground v.1.15,2013-06-29 04:35:00,
2013-06-28 21:40:00,88.1,40.6,30.05,NNW,343,0.0,1.0,19,0.00,,,0.00,Wunderground v.1.15,2013-06-29 04:40:00,
2013-06-28 21:45:00,87.9,40.5,30.05,NNW,343,0.0,1.0,19,0.00,,,0.00,Wunderground v.1.15,2013-06-29 04:45:00,
2013-06-28 21:50:00,87.5,40.2,30.05,NNW,343,0.0,1.0,19,0.00,,,0.00,Wunderground v.1.15,2013-06-29 04:50:00,
2013-06-28 22:00:00,86.8,40.9,30.05,NNW,343,0.0,1.0,20,0.00,,,0.00,Wunderground v.1.15,2013-06-29 05:00:00,
2013-06-28 22:05:00,86.5,40.7,30.05,NNW,343,0.0,3.0,20,0.00,,,0.00,Wunderground v.1.15,2013-06-29 05:05:00,
2013-06-28 22:15:00,86.1,40.3,30.05,NW,323,2.0,3.0,20,0.00,,,0.00,Wunderground v.1.15,2013-06-29 05:15:00,
2013-06-28 22:20:00,86.0,40.2,30.05,NW,323,1.0,1.0,20,0.00,,,0.00,Wunderground v.1.15,2013-06-29 05:20:00,
2013-06-28 22:30:00,85.7,40.0,30.05,NW,323,1.0,3.0,20,0.00,,,0.00,Wunderground v.1.15,2013-06-29 05:30:00,
2013-06-28 22:40:00,85.5,39.8,30.05,NW,323,2.0,2.0,20,0.00,,,0.00,Wunderground v.1.15,2013-06-29 05:40:00,
2013-06-28 22:45:00,85.3,39.7,30.05,NW,323,1.0,5.0,20,0.00,,,0.00,Wunderground v.1.15,2013-06-29 05:45:00,
2013-06-28 22:50:00,85.3,39.7,30.05,NW,322,1.0,1.0,20,0.00,,,0.00,Wunderground v.1.15,2013-06-29 05:50:00,
2013-06-28 23:00:00,85.3,39.7,30.06,NW,322,0.0,5.0,20,0.00,,,0.00,Wunderground v.1.15,2013-06-29 06:00:00,
2013-06-28 23:05:00,84.5,39.0,30.06,NW,323,0.0,5.0,20,0.00,,,0.00,Wunderground v.1.15,2013-06-29 06:05:00,
2013-06-28 23:15:00,83.5,39.4,30.06,NW,319,1.0,5.0,21,0.00,,,0.00,Wunderground v.1.15,2013-06-29 06:15:00,
2013-06-28 23:20:00,83.4,39.4,30.06,NW,318,1.0,1.0,21,0.00,,,0.00,Wunderground v.1.15,2013-06-29 06:20:00,
2013-06-28 23:25:00,83.1,39.1,30.06,NW,318,0.0,5.0,21,0.00,,,0.00,Wunderground v.1.15,2013-06-29 06:25:00,
2013-06-28 23:30:00,83.2,39.2,30.06,WNW,282,1.0,5.0,21,0.00,,,0.00,Wunderground v.1.15,2013-06-29 06:30:00,
2013-06-28 23:40:00,83.9,38.5,30.06,West,275,3.0,3.0,20,0.00,,,0.00,Wunderground v.1.15,2013-06-29 06:40:00,
2013-06-28 23:45:00,83.9,38.5,30.06,West,263,2.0,6.0,20,0.00,,,0.00,Wunderground v.1.15,2013-06-29 06:45:00,
2013-06-28 23:50:00,84.2,38.8,30.06,West,273,3.0,8.0,20,0.00,,,0.00,Wunderground v.1.15,2013-06-29 06:50:00,